Time;durP1;ratioP1;P1;durP2;ratioP2;P2;SDS_P1;SDS_P2;PMS_P1;PMS_P2;Temp;Humidity;BMP_temperature;BMP_pressure;BME280_temperature;BME280_humidity;BME280_pressure;Samples;Min_cycle;Max_cycle;Signal;HPM_P1;HPM_P2
2021/01/26 00:01:16;;;;;;;14.17;12.00;;;;;;;0.18;100.00;98434.41;5007296;28;106869;-83
2021/01/26 00:03:45;;;;;;;14.47;11.03;;;;;;;0.30;100.00;98439.19;5009080;28;102997;-82
2021/01/26 00:06:12;;;;;;;14.23;10.17;;;;;;;0.29;99.59;98447.88;5009073;28;102652;-82
2021/01/26 00:08:40;;;;;;;11.53;10.03;;;;;;;0.35;99.85;98444.22;5008313;28;105454;-82
2021/01/26 00:11:07;;;;;;;11.27;10.07;;;;;;;0.44;99.54;98444.75;4990162;28;105195;-82
2021/01/26 00:13:35;;;;;;;12.47;10.13;;;;;;;0.52;98.81;98454.84;4991161;28;102760;-82
2021/01/26 00:16:03;;;;;;;10.27;7.87;;;;;;;0.54;97.94;98448.69;5007678;28;102677;-82
2021/01/26 00:18:31;;;;;;;13.23;10.00;;;;;;;0.52;98.42;98449.66;5008626;28;103289;-82
2021/01/26 00:20:58;;;;;;;11.77;10.03;;;;;;;0.47;97.56;98444.63;5008482;28;102746;-82
2021/01/26 00:23:25;;;;;;;11.70;10.00;;;;;;;0.43;98.37;98448.22;5008850;28;102967;-82
2021/01/26 00:25:54;;;;;;;11.70;9.43;;;;;;;0.46;98.09;98452.47;5008102;28;102927;-82
2021/01/26 00:28:21;;;;;;;10.43;9.17;;;;;;;0.42;98.52;98451.72;5008518;28;103810;-82
2021/01/26 00:30:48;;;;;;;10.93;8.97;;;;;;;0.56;98.67;98456.47;5008057;28;104244;-82
2021/01/26 00:33:17;;;;;;;9.57;7.73;;;;;;;0.48;97.56;98458.47;5008590;28;102727;-81
2021/01/26 00:35:45;;;;;;;10.97;9.23;;;;;;;0.45;97.88;98459.41;5008593;28;104717;-82
2021/01/26 00:38:13;;;;;;;13.00;9.33;;;;;;;0.55;98.51;98455.59;5007738;28;104167;-82
2021/01/26 00:40:40;;;;;;;12.10;10.27;;;;;;;0.51;97.96;98458.34;5008004;28;103696;-82
2021/01/26 00:43:09;;;;;;;11.00;9.87;;;;;;;0.40;97.60;98453.53;5008707;28;102917;-82
2021/01/26 00:45:37;;;;;;;11.90;10.10;;;;;;;0.50;98.51;98454.94;5008939;28;102951;-82
2021/01/26 00:48:06;;;;;;;11.63;9.10;;;;;;;0.52;98.23;98449.66;5007198;28;105473;-82
2021/01/26 00:50:34;;;;;;;10.87;9.27;;;;;;;0.42;98.06;98454.31;5007351;28;104226;-82
2021/01/26 00:53:03;;;;;;;8.47;7.50;;;;;;;0.46;98.23;98455.94;5004084;28;102992;-81
2021/01/26 00:55:39;;;;;;;9.20;7.63;;;;;;;0.50;98.15;98460.13;4988322;28;103035;-82
2021/01/26 00:58:09;;;;;;;10.90;9.00;;;;;;;0.45;97.88;98453.41;4987880;28;103303;-82
2021/01/26 01:00:39;;;;;;;10.27;8.77;;;;;;;0.42;97.76;98469.09;4996237;28;103292;-82
2021/01/26 01:03:13;;;;;;;9.83;6.97;;;;;;;0.33;98.63;98464.22;5005350;28;102631;-82
2021/01/26 01:05:40;;;;;;;10.93;9.83;;;;;;;0.26;98.20;98468.78;4990472;28;102629;-82
2021/01/26 01:08:08;;;;;;;9.87;8.57;;;;;;;0.27;98.62;98472.22;5008314;28;103028;-83
2021/01/26 01:10:38;;;;;;;11.30;9.60;;;;;;;0.20;98.42;98473.31;4995410;28;104069;-82
2021/01/26 01:13:06;;;;;;;12.33;10.40;;;;;;;0.31;98.38;98469.44;4988897;28;102671;-82
2021/01/26 01:15:34;;;;;;;12.13;9.57;;;;;;;0.32;98.04;98471.16;4989619;28;103021;-82
2021/01/26 01:18:01;;;;;;;8.50;7.30;;;;;;;0.25;97.53;98482.69;4989104;28;103319;-82
2021/01/26 01:20:29;;;;;;;9.03;7.90;;;;;;;0.40;98.14;98476.06;5000377;28;103907;-81
2021/01/26 01:22:56;;;;;;;10.67;7.77;;;;;;;0.41;98.14;98477.78;5008652;28;103080;-82
2021/01/26 01:25:23;;;;;;;10.70;9.43;;;;;;;0.44;97.92;98481.13;5007847;28;102849;-81
2021/01/26 01:27:50;;;;;;;9.50;7.33;;;;;;;0.48;97.74;98485.31;5023473;28;103281;-83
2021/01/26 01:30:21;;;;;;;9.47;7.67;;;;;;;0.37;97.95;98496.97;5005732;28;105788;-82
2021/01/26 01:32:49;;;;;;;11.00;9.30;;;;;;;0.31;97.40;98498.03;5006679;28;102899;-82
2021/01/26 01:35:18;;;;;;;9.43;8.37;;;;;;;0.30;96.49;98490.31;5022945;28;102976;-81
2021/01/26 01:37:45;;;;;;;8.37;7.47;;;;;;;0.43;96.34;98496.75;5007022;28;103370;-82
2021/01/26 01:40:17;;;;;;;10.50;9.27;;;;;;;0.44;96.21;98508.88;5006154;28;103866;-82
2021/01/26 01:42:47;;;;;;;11.47;8.63;;;;;;;0.37;98.15;98505.63;5006580;28;102582;-82
2021/01/26 01:45:16;;;;;;;8.87;7.00;;;;;;;0.43;96.51;98512.38;5007691;28;103866;-81
2021/01/26 01:47:46;;;;;;;8.93;7.97;;;;;;;0.47;95.11;98520.00;5006576;28;103934;-82
2021/01/26 01:50:20;;;;;;;9.87;8.10;;;;;;;0.43;94.19;98513.22;5005509;28;105251;-81
2021/01/26 01:52:54;;;;;;;9.70;6.87;;;;;;;0.44;93.38;98520.13;5008017;28;102516;-81
2021/01/26 01:55:23;;;;;;;10.03;7.77;;;;;;;0.45;93.08;98518.38;5006706;28;103104;-81
2021/01/26 01:57:54;;;;;;;9.03;7.50;;;;;;;0.37;93.02;98518.63;5005779;28;104291;-82
2021/01/26 02:00:23;;;;;;;8.90;6.63;;;;;;;0.45;92.54;98527.00;5006845;28;104325;-81
2021/01/26 02:02:55;;;;;;;8.53;6.73;;;;;;;0.53;92.39;98529.34;5003127;28;102620;-81
2021/01/26 02:05:23;;;;;;;7.93;5.97;;;;;;;0.44;92.11;98527.91;4989946;28;103041;-80
2021/01/26 02:07:56;;;;;;;8.37;7.07;;;;;;;0.46;92.30;98538.25;5006601;28;105210;-81
2021/01/26 02:10:23;;;;;;;8.53;6.90;;;;;;;0.47;92.18;98535.63;5001104;28;104227;-82
2021/01/26 02:12:51;;;;;;;8.50;7.00;;;;;;;0.44;92.20;98535.72;5022524;28;103102;-81
2021/01/26 02:15:19;;;;;;;10.03;7.03;;;;;;;0.37;91.38;98534.22;5006861;28;102617;-81
2021/01/26 02:18:06;;;;;;;8.40;6.67;;;;;;;0.42;91.81;98545.28;5022539;28;103926;-81
2021/01/26 02:21:30;;;;;;;7.97;6.83;;;;;;;0.48;91.87;98542.50;4975370;28;103231;-82
2021/01/26 02:24:44;;;;;;;9.40;7.10;;;;;;;0.44;91.16;98546.13;4988040;28;103628;-80
2021/01/26 02:27:48;;;;;;;9.73;6.43;;;;;;;0.37;91.67;98548.94;4948379;28;102733;-82
2021/01/26 02:30:37;;;;;;;9.97;7.13;;;;;;;0.44;90.85;98546.13;4963281;28;103766;-81
2021/01/26 02:33:40;;;;;;;8.67;6.43;;;;;;;0.36;91.73;98542.94;4999814;28;103831;-81
2021/01/26 02:36:44;;;;;;;8.83;6.50;;;;;;;0.49;90.99;98544.19;5005539;28;102586;-82
2021/01/26 02:39:36;;;;;;;9.73;6.80;;;;;;;0.47;90.85;98543.41;5012317;28;102795;-79
2021/01/26 02:42:33;;;;;;;10.37;7.60;;;;;;;0.48;91.52;98545.09;5005199;28;103849;-81
2021/01/26 02:45:15;;;;;;;8.53;6.77;;;;;;;0.51;92.02;98551.94;4983198;28;104753;-81
2021/01/26 02:47:58;;;;;;;9.93;7.50;;;;;;;0.50;91.14;98545.06;5005410;28;102713;-81
2021/01/26 02:50:29;;;;;;;8.43;6.70;;;;;;;0.51;91.45;98552.78;5007407;28;102540;-81
2021/01/26 02:53:05;;;;;;;10.33;7.87;;;;;;;0.57;90.80;98555.19;5007335;28;103693;-81
2021/01/26 02:55:41;;;;;;;8.27;6.93;;;;;;;0.59;91.20;98549.91;5009570;28;103969;-81
2021/01/26 02:58:16;;;;;;;11.27;7.10;;;;;;;0.59;90.95;98555.97;5010168;28;102544;-81
2021/01/26 03:00:47;;;;;;;9.93;6.97;;;;;;;0.63;91.45;98550.66;5007423;28;102608;-81
2021/01/26 03:03:20;;;;;;;9.77;7.13;;;;;;;0.54;91.50;98551.81;5013107;28;106639;-81
2021/01/26 03:05:53;;;;;;;9.00;7.03;;;;;;;0.55;91.13;98556.13;5009803;28;104384;-81
2021/01/26 03:08:25;;;;;;;9.53;7.10;;;;;;;0.50;90.61;98555.44;5009869;28;102648;-81
2021/01/26 03:10:59;;;;;;;8.80;7.03;;;;;;;0.50;90.63;98551.09;4994671;28;103025;-81
2021/01/26 03:13:28;;;;;;;10.60;7.63;;;;;;;0.43;90.86;98548.75;4991164;28;103848;-81
2021/01/26 03:16:02;;;;;;;7.67;6.67;;;;;;;0.45;90.58;98542.59;5010305;28;107032;-81
2021/01/26 03:18:36;;;;;;;8.13;7.00;;;;;;;0.41;90.06;98546.22;5011115;28;102882;-81
2021/01/26 03:21:05;;;;;;;8.80;7.77;;;;;;;0.35;91.01;98546.41;5010074;28;103142;-81
2021/01/26 03:23:38;;;;;;;7.97;6.57;;;;;;;0.45;90.58;98550.38;5009213;28;104367;-81
2021/01/26 03:26:10;;;;;;;10.20;6.93;;;;;;;0.41;90.72;98546.22;5009179;28;104992;-81
2021/01/26 03:28:39;;;;;;;8.67;6.83;;;;;;;0.31;90.24;98555.19;5010187;28;102871;-81
2021/01/26 03:31:09;;;;;;;9.70;6.40;;;;;;;0.40;90.45;98544.50;5009582;28;103222;-81
2021/01/26 03:33:40;;;;;;;9.17;6.60;;;;;;;0.29;89.75;98551.81;5009354;28;104966;-82
2021/01/26 03:36:07;;;;;;;8.77;5.80;;;;;;;0.37;89.39;98539.41;5009577;28;105676;-81
2021/01/26 03:38:35;;;;;;;7.73;6.10;;;;;;;0.37;88.93;98549.81;5024409;28;103211;-80
2021/01/26 03:41:06;;;;;;;8.20;6.27;;;;;;;0.44;89.51;98550.47;5008665;28;103258;-81
2021/01/26 03:43:34;;;;;;;7.90;6.90;;;;;;;0.41;90.39;98551.41;5008049;28;105352;-81
2021/01/26 03:46:10;;;;;;;8.03;6.13;;;;;;;0.51;89.83;98542.38;5007511;28;106681;-80
2021/01/26 03:48:54;;;;;;;12.00;6.63;;;;;;;0.48;89.92;98546.84;5008612;28;102736;-81
2021/01/26 03:51:34;;;;;;;8.43;5.87;;;;;;;0.46;89.63;98549.50;5010097;28;102810;-79
2021/01/26 03:54:28;;;;;;;7.20;6.10;;;;;;;0.51;89.46;98537.19;4989096;28;104298;-81
2021/01/26 03:57:19;;;;;;;8.80;6.40;;;;;;;0.54;89.72;98542.28;4989634;28;103793;-80
2021/01/26 04:00:05;;;;;;;7.17;5.63;;;;;;;0.54;89.83;98531.03;4988478;28;103325;-81
2021/01/26 04:02:44;;;;;;;8.33;5.40;;;;;;;0.56;89.54;98529.25;4998976;28;103059;-81
2021/01/26 04:05:20;;;;;;;7.83;5.07;;;;;;;0.48;88.73;98526.91;5009045;28;103783;-80
2021/01/26 04:07:59;;;;;;;6.70;5.47;;;;;;;0.53;89.05;98519.78;5009095;28;110079;-81
2021/01/26 04:10:30;;;;;;;8.83;5.47;;;;;;;0.54;88.63;98526.69;4997464;28;103470;-81
2021/01/26 04:13:01;;;;;;;5.20;4.70;;;;;;;0.48;88.42;98524.28;4988000;28;102617;-80
2021/01/26 04:15:37;;;;;;;9.13;5.17;;;;;;;0.54;88.53;98525.84;4988588;28;105067;-81
2021/01/26 04:18:07;;;;;;;8.47;5.17;;;;;;;0.52;88.29;98522.44;4988743;28;104871;-81
2021/01/26 04:20:37;;;;;;;7.63;5.20;;;;;;;0.52;88.70;98523.31;4994350;28;102638;-80
2021/01/26 04:23:05;;;;;;;5.57;4.53;;;;;;;0.63;89.02;98514.25;5002640;28;103277;-80
2021/01/26 04:25:36;;;;;;;7.47;5.40;;;;;;;0.58;88.49;98523.09;5007436;28;105268;-79
2021/01/26 04:28:06;;;;;;;7.90;4.63;;;;;;;0.57;87.56;98521.38;5009376;28;104153;-79
2021/01/26 04:30:34;;;;;;;6.40;4.50;;;;;;;0.68;87.79;98528.78;5009617;28;103193;-79
2021/01/26 04:33:04;;;;;;;5.90;4.60;;;;;;;0.66;87.41;98514.16;5002811;28;103242;-79
2021/01/26 04:35:31;;;;;;;7.03;4.67;;;;;;;0.72;88.01;98519.13;5008448;28;103426;-78
2021/01/26 04:37:58;;;;;;;6.33;4.53;;;;;;;0.69;87.23;98516.66;5002293;28;103819;-76
2021/01/26 04:40:27;;;;;;;6.80;4.10;;;;;;;0.76;87.22;98520.75;5022081;28;103059;-79
2021/01/26 04:43:00;;;;;;;9.47;5.03;;;;;;;0.79;87.71;98515.41;4998770;28;103448;-77
2021/01/26 04:45:36;;;;;;;5.80;4.40;;;;;;;0.79;87.18;98531.00;5008516;28;105382;-76
2021/01/26 04:48:09;;;;;;;5.30;3.70;;;;;;;0.81;87.16;98526.63;5021421;28;105779;-79
2021/01/26 04:50:48;;;;;;;5.53;4.30;;;;;;;0.76;87.76;98523.34;4999756;28;102880;-78
2021/01/26 04:53:32;;;;;;;5.37;4.03;;;;;;;0.84;88.93;98529.13;5001034;28;103035;-89
2021/01/26 04:56:06;;;;;;;5.33;3.90;;;;;;;0.81;87.46;98530.06;5007033;28;104428;-86
2021/01/26 04:58:55;;;;;;;4.97;3.67;;;;;;;0.90;86.84;98542.72;5007973;28;104237;-85
2021/01/26 05:01:34;;;;;;;4.93;3.47;;;;;;;0.92;86.84;98553.94;5002071;28;103149;-86
2021/01/26 05:04:07;;;;;;;4.93;3.53;;;;;;;0.89;86.42;98553.19;5008459;28;102856;-86
2021/01/26 05:06:37;;;;;;;5.90;3.73;;;;;;;1.01;86.91;98557.97;5008030;28;104052;-85
2021/01/26 05:09:11;;;;;;;4.30;2.87;;;;;;;1.04;87.60;98557.84;5003949;28;104290;-84
2021/01/26 05:11:42;;;;;;;5.97;3.73;;;;;;;0.98;87.21;98561.50;4997714;28;103101;-85
2021/01/26 05:14:15;;;;;;;6.13;3.70;;;;;;;1.00;87.54;98553.66;4988619;28;102691;-85
2021/01/26 05:16:52;;;;;;;4.73;3.13;;;;;;;1.03;88.09;98557.00;4987245;28;104386;-84
2021/01/26 05:19:25;;;;;;;6.23;3.70;;;;;;;0.99;89.36;98554.56;4994360;28;104100;-85
2021/01/26 05:22:00;;;;;;;5.63;3.50;;;;;;;1.01;88.83;98552.78;5008275;28;102495;-85
2021/01/26 05:24:33;;;;;;;4.60;3.43;;;;;;;0.98;87.76;98558.09;5008576;28;103533;-85
2021/01/26 05:27:01;;;;;;;5.77;3.47;;;;;;;0.90;87.61;98568.75;5005817;28;104559;-85
2021/01/26 05:29:29;;;;;;;6.53;3.40;;;;;;;0.98;87.96;98568.50;5018944;27;103217;-85
2021/01/26 05:32:00;;;;;;;7.17;4.40;;;;;;;1.00;88.23;98562.31;4993946;28;103330;-84
2021/01/26 05:34:30;;;;;;;3.33;2.60;;;;;;;0.97;88.62;98561.56;5008513;28;103184;-84
2021/01/26 05:36:58;;;;;;;4.13;3.30;;;;;;;1.03;88.28;98567.41;4989776;28;104937;-85
2021/01/26 05:39:32;;;;;;;3.90;2.70;;;;;;;1.06;88.03;98551.69;5007005;28;103766;-84
2021/01/26 05:41:59;;;;;;;5.37;3.07;;;;;;;1.08;87.77;98559.44;4989754;28;103058;-84
2021/01/26 05:44:27;;;;;;;4.80;2.90;;;;;;;1.05;88.08;98559.53;4988185;28;102902;-85
2021/01/26 05:46:54;;;;;;;5.13;2.40;;;;;;;1.08;87.02;98559.44;4987587;28;104383;-84
2021/01/26 05:49:40;;;;;;;4.80;2.43;;;;;;;1.11;87.07;98556.72;4986249;28;103466;-84
2021/01/26 05:52:10;;;;;;;2.77;2.27;;;;;;;1.11;87.03;98564.53;4988283;28;102983;-85
2021/01/26 05:54:45;;;;;;;3.37;1.90;;;;;;;1.11;86.49;98560.19;4986681;28;102872;-84
2021/01/26 05:57:22;;;;;;;4.20;2.03;;;;;;;1.15;85.70;98555.72;5019428;28;106745;-84
2021/01/26 05:59:49;;;;;;;3.47;2.20;;;;;;;1.23;86.24;98561.47;5016588;28;103973;-84
2021/01/26 06:02:21;;;;;;;4.40;1.60;;;;;;;1.23;85.67;98566.69;5004908;28;102881;-76
2021/01/26 06:04:49;;;;;;;3.80;2.30;;;;;;;1.22;85.65;98572.78;5006163;28;103148;-76
2021/01/26 06:07:20;;;;;;;4.43;2.00;;;;;;;1.24;85.22;98570.97;4995650;28;103722;-74
2021/01/26 06:09:49;;;;;;;5.30;2.00;;;;;;;1.25;85.04;98577.03;4986952;28;104686;-74
2021/01/26 06:12:20;;;;;;;6.07;1.80;;;;;;;1.28;84.66;98577.78;4996740;28;103194;-73
2021/01/26 06:15:01;;;;;;;5.03;1.70;;;;;;;1.28;84.35;98585.56;5000046;28;103182;-78
2021/01/26 06:17:30;;;;;;;4.00;1.93;;;;;;;1.28;85.28;98572.56;5002664;28;105284;-76
2021/01/26 06:20:15;;;;;;;2.97;2.03;;;;;;;1.23;84.78;98584.06;5003046;28;103513;-77
2021/01/26 06:22:42;;;;;;;4.17;2.07;;;;;;;1.26;84.83;98574.38;5003405;28;103045;-76
2021/01/26 06:25:18;;;;;;;3.83;2.30;;;;;;;1.33;84.17;98588.84;4983580;28;103040;-76
2021/01/26 06:28:08;;;;;;;5.73;2.47;;;;;;;1.34;85.12;98590.56;4998957;28;103497;-77
2021/01/26 06:30:52;;;;;;;3.43;1.80;;;;;;;1.31;85.02;98593.28;5006704;28;103345;-77
2021/01/26 06:33:51;;;;;;;4.00;2.03;;;;;;;1.30;85.67;98606.34;5009192;28;103107;-77
2021/01/26 06:36:46;;;;;;;2.03;1.83;;;;;;;1.28;86.66;98598.59;5008215;28;102930;-77
2021/01/26 06:39:30;;;;;;;4.63;2.37;;;;;;;1.32;86.53;98620.97;4991892;28;106027;-77
2021/01/26 06:42:19;;;;;;;3.30;2.10;;;;;;;1.36;86.87;98622.59;5012074;28;104993;-77
2021/01/26 06:45:14;;;;;;;4.33;2.50;;;;;;;1.30;87.41;98625.41;5005615;28;103005;-77
2021/01/26 06:48:05;;;;;;;5.30;2.10;;;;;;;1.29;87.87;98628.94;5024063;28;102910;-76
2021/01/26 06:50:45;;;;;;;4.17;2.07;;;;;;;1.28;87.58;98635.03;4991729;28;103796;-77
2021/01/26 06:53:27;;;;;;;3.23;1.97;;;;;;;1.25;87.94;98645.56;5007601;28;110480;-77
2021/01/26 06:56:07;;;;;;;4.00;2.47;;;;;;;1.30;87.84;98643.63;5004625;28;102684;-76
2021/01/26 06:58:55;;;;;;;5.87;2.43;;;;;;;1.26;87.78;98649.00;4989102;28;103138;-77
2021/01/26 07:01:56;;;;;;;4.70;2.67;;;;;;;1.27;87.95;98648.94;5015527;28;104559;-77
2021/01/26 07:04:34;;;;;;;3.20;2.20;;;;;;;1.33;88.22;98646.13;4990142;28;103730;-77
2021/01/26 07:07:38;;;;;;;4.27;2.20;;;;;;;1.39;88.70;98640.69;4985160;28;103197;-77
2021/01/26 07:10:26;;;;;;;3.43;2.00;;;;;;;1.36;88.93;98643.41;4968661;28;103225;-76
2021/01/26 07:13:10;;;;;;;4.93;2.63;;;;;;;1.23;90.00;98646.50;5008957;28;104392;-77
2021/01/26 07:16:00;;;;;;;4.67;2.33;;;;;;;1.24;90.66;98651.66;5024487;28;103261;-77
2021/01/26 07:18:51;;;;;;;7.87;2.63;;;;;;;1.23;91.14;98663.00;5025272;28;102903;-77
2021/01/26 07:21:31;;;;;;;3.93;2.13;;;;;;;1.25;91.17;98674.19;5006260;28;103280;-80
2021/01/26 07:24:15;;;;;;;4.83;2.37;;;;;;;1.22;90.82;98670.81;5006464;28;103755;-78
2021/01/26 07:27:21;;;;;;;4.03;2.47;;;;;;;1.32;90.91;98683.44;5007972;28;103673;-77
2021/01/26 07:29:56;;;;;;;4.30;2.40;;;;;;;1.32;90.88;98682.63;4998961;28;103231;-78
2021/01/26 07:32:30;;;;;;;5.00;2.70;;;;;;;1.36;90.68;98682.47;5007605;28;103269;-77
2021/01/26 07:35:11;;;;;;;2.93;2.07;;;;;;;1.39;90.45;98690.16;5003320;28;104569;-77
2021/01/26 07:37:47;;;;;;;8.47;2.63;;;;;;;1.39;90.45;98704.94;5007173;28;107251;-77
2021/01/26 07:40:22;;;;;;;3.10;2.10;;;;;;;1.37;90.77;98701.53;5007553;28;103327;-80
2021/01/26 07:42:59;;;;;;;4.63;2.30;;;;;;;1.45;90.62;98709.91;4996891;28;102756;-82
2021/01/26 07:45:33;;;;;;;2.57;1.83;;;;;;;1.43;90.34;98716.94;5004180;28;104350;-82
2021/01/26 07:48:07;;;;;;;6.07;2.80;;;;;;;1.44;90.83;98722.09;5003709;28;109214;-83
2021/01/26 07:50:42;;;;;;;3.60;2.00;;;;;;;1.53;91.18;98724.38;5006604;28;103073;-84
2021/01/26 07:53:20;;;;;;;4.70;2.43;;;;;;;1.41;91.38;98714.38;5005707;28;103135;-81
2021/01/26 07:55:53;;;;;;;4.53;2.13;;;;;;;1.43;91.24;98707.34;4988038;28;105480;-82
2021/01/26 07:58:21;;;;;;;6.40;2.70;;;;;;;1.53;91.10;98729.56;5004716;28;105400;-82
2021/01/26 08:00:56;;;;;;;4.90;2.90;;;;;;;1.50;90.89;98727.06;5007395;28;102918;-82
2021/01/26 08:03:25;;;;;;;5.83;2.83;;;;;;;1.55;89.97;98732.97;5010396;28;102849;-81
2021/01/26 08:05:55;;;;;;;4.77;2.90;;;;;;;1.53;89.32;98721.75;5006342;28;103300;-81
2021/01/26 08:08:27;;;;;;;7.43;3.10;;;;;;;1.67;89.18;98722.13;5002757;28;106530;-82
2021/01/26 08:11:13;;;;;;;6.33;3.17;;;;;;;1.65;88.86;98738.72;5004745;28;103205;-82
2021/01/26 08:13:45;;;;;;;4.57;2.87;;;;;;;1.63;88.48;98730.94;4989022;28;102737;-82
2021/01/26 08:16:17;;;;;;;7.80;3.33;;;;;;;1.70;88.51;98719.41;5005952;28;104290;-83
2021/01/26 08:18:47;;;;;;;5.37;3.13;;;;;;;1.67;88.41;98737.75;4996545;28;106405;-82
2021/01/26 08:21:33;;;;;;;5.10;3.43;;;;;;;1.65;88.29;98744.78;5004750;28;103270;-82
2021/01/26 08:24:27;;;;;;;5.87;3.67;;;;;;;1.63;88.62;98745.69;4998281;28;103148;-82
2021/01/26 08:26:57;;;;;;;7.90;3.87;;;;;;;1.56;88.01;98745.09;5005184;28;107905;-82
2021/01/26 08:29:52;;;;;;;5.13;3.53;;;;;;;1.65;88.60;98741.31;4987480;28;106701;-82
2021/01/26 08:32:56;;;;;;;5.57;3.63;;;;;;;1.66;88.00;98759.47;4992005;28;103174;-82
2021/01/26 08:36:05;;;;;;;5.53;3.80;;;;;;;1.73;88.07;98755.75;5007699;28;103193;-81
2021/01/26 08:38:49;;;;;;;5.67;3.67;;;;;;;1.64;87.60;98753.47;4960713;28;104999;-82
2021/01/26 08:41:40;;;;;;;8.20;3.80;;;;;;;1.68;88.11;98759.44;4979341;28;106412;-79
2021/01/26 08:44:10;;;;;;;6.20;4.23;;;;;;;1.76;87.48;98767.81;5007643;28;102905;-82
2021/01/26 08:46:40;;;;;;;7.27;3.57;;;;;;;1.71;87.56;98769.75;5006402;28;103114;-74
2021/01/26 08:49:25;;;;;;;8.07;3.70;;;;;;;1.75;86.98;98779.13;5007844;28;104193;-74
2021/01/26 08:51:53;;;;;;;6.27;3.67;;;;;;;1.79;87.29;98772.06;5006596;28;104800;-74
2021/01/26 08:54:42;;;;;;;5.40;3.80;;;;;;;1.75;87.36;98766.97;5008047;28;103201;-74
2021/01/26 08:57:42;;;;;;;4.80;3.83;;;;;;;1.73;87.24;98771.38;5008544;28;102799;-74
2021/01/26 09:00:37;;;;;;;7.60;3.90;;;;;;;1.85;87.63;98774.47;5005178;28;104907;-74
2021/01/26 09:03:27;;;;;;;4.40;3.30;;;;;;;1.83;87.87;98789.28;5007158;28;103719;-74
2021/01/26 09:05:58;;;;;;;6.23;4.17;;;;;;;1.75;86.59;98780.00;5007941;28;102871;-74
2021/01/26 09:08:59;;;;;;;6.27;3.80;;;;;;;1.75;86.79;98776.53;5005781;28;103426;-74
2021/01/26 09:11:47;;;;;;;7.37;4.17;;;;;;;1.63;86.85;98777.81;5002709;28;106536;-74
2021/01/26 09:14:30;;;;;;;5.10;3.60;;;;;;;1.67;86.61;98779.41;5004592;28;103683;-73
2021/01/26 09:17:02;;;;;;;5.20;3.73;;;;;;;1.68;85.76;98775.88;5007406;28;103087;-74
2021/01/26 09:19:33;;;;;;;4.90;3.70;;;;;;;1.78;85.61;98771.22;5008483;28;102857;-72
2021/01/26 09:22:13;;;;;;;6.10;3.47;;;;;;;1.94;85.30;98771.53;5004352;28;104840;-73
2021/01/26 09:24:41;;;;;;;5.47;3.30;;;;;;;2.11;84.43;98774.34;5007953;28;104313;-73
2021/01/26 09:27:28;;;;;;;5.60;3.23;;;;;;;2.00;83.45;98771.28;5005187;28;102675;-73
2021/01/26 09:30:19;;;;;;;5.40;3.00;;;;;;;2.21;82.16;98786.13;5004314;28;102940;-73
2021/01/26 09:33:01;;;;;;;5.43;2.43;;;;;;;2.44;81.10;98785.28;5006329;28;103884;-73
2021/01/26 09:35:33;;;;;;;4.43;2.73;;;;;;;2.58;80.27;98786.44;5007724;28;103133;-73
2021/01/26 09:38:04;;;;;;;3.93;2.30;;;;;;;2.70;81.14;98788.56;5007750;28;102831;-73
2021/01/26 09:40:35;;;;;;;4.43;2.90;;;;;;;2.49;80.21;98789.41;5007690;28;103054;-76
2021/01/26 09:43:22;;;;;;;4.53;2.77;;;;;;;2.72;80.67;98804.16;5003472;28;103605;-74
2021/01/26 09:45:57;;;;;;;5.00;2.47;;;;;;;2.48;79.70;98808.56;4987002;28;103317;-76
2021/01/26 09:48:29;;;;;;;5.50;2.93;;;;;;;2.42;80.94;98815.75;4989627;28;103258;-74
2021/01/26 09:51:17;;;;;;;5.33;2.67;;;;;;;2.34;81.12;98813.44;5007470;28;103086;-73
2021/01/26 09:53:47;;;;;;;5.17;2.87;;;;;;;2.34;81.07;98814.28;4988080;28;103382;-73
2021/01/26 09:56:20;;;;;;;3.97;2.20;;;;;;;2.33;80.39;98827.38;5007285;28;103705;-73
2021/01/26 09:58:51;;;;;;;3.13;2.30;;;;;;;2.46;80.55;98827.78;5006766;28;103343;-73
2021/01/26 10:01:19;;;;;;;4.43;2.60;;;;;;;2.48;79.96;98826.81;5005958;28;102931;-74
2021/01/26 10:03:48;;;;;;;5.23;2.17;;;;;;;2.66;79.72;98820.06;5005379;28;104448;-74
2021/01/26 10:06:18;;;;;;;5.50;2.40;;;;;;;2.54;79.35;98825.72;5004975;28;103719;-73
2021/01/26 10:08:46;;;;;;;6.00;2.33;;;;;;;2.77;79.18;98834.38;5002927;28;103000;-73
2021/01/26 10:11:18;;;;;;;7.10;2.10;;;;;;;2.64;78.41;98827.09;5002318;28;103202;-74
2021/01/26 10:13:47;;;;;;;4.70;2.07;;;;;;;2.58;78.63;98830.78;5000805;28;105497;-74
2021/01/26 10:16:34;;;;;;;4.47;2.07;;;;;;;2.86;78.09;98838.41;5005563;28;104977;-74
2021/01/26 10:19:10;;;;;;;3.60;2.07;;;;;;;2.93;76.84;98842.44;5004240;28;103793;-74
2021/01/26 10:21:38;;;;;;;3.97;1.70;;;;;;;3.01;76.35;98837.78;5007169;28;103093;-74
2021/01/26 10:24:09;;;;;;;3.13;2.20;;;;;;;3.22;75.95;98839.53;5007068;28;103271;-74
2021/01/26 10:26:39;;;;;;;4.27;2.00;;;;;;;2.91;75.65;98842.53;5007377;28;105483;-73
2021/01/26 10:29:18;;;;;;;4.13;2.10;;;;;;;3.00;76.10;98843.94;5000166;28;103191;-74
2021/01/26 10:31:49;;;;;;;3.43;2.03;;;;;;;3.07;76.40;98854.94;4999302;28;106556;-76
2021/01/26 10:34:24;;;;;;;3.77;2.30;;;;;;;2.93;76.66;98851.13;4999423;28;106225;-76
2021/01/26 10:36:52;;;;;;;4.03;1.93;;;;;;;2.96;77.06;98850.16;4991001;28;106445;-76
2021/01/26 10:39:29;;;;;;;4.63;2.60;;;;;;;3.02;76.69;98856.91;4988661;28;103193;-75
2021/01/26 10:42:01;;;;;;;3.77;2.30;;;;;;;2.93;76.37;98861.56;4998358;28;104356;-76
2021/01/26 10:44:29;;;;;;;6.50;2.40;;;;;;;2.83;76.46;98865.47;4996738;28;104401;-75
2021/01/26 10:46:59;;;;;;;5.80;2.43;;;;;;;2.90;77.34;98869.53;5018944;28;105656;-76
2021/01/26 10:49:31;;;;;;;5.97;2.03;;;;;;;2.84;76.90;98867.13;5015043;28;103140;-78
2021/01/26 10:52:02;;;;;;;6.63;2.03;;;;;;;2.96;76.83;98867.56;5004361;28;103206;-76
2021/01/26 10:54:29;;;;;;;3.00;2.07;;;;;;;2.95;77.03;98866.72;5022154;28;106796;-75
2021/01/26 10:56:57;;;;;;;3.30;2.20;;;;;;;2.85;76.77;98870.59;4988111;28;104743;-77
2021/01/26 10:59:24;;;;;;;2.60;1.93;;;;;;;2.95;77.59;98873.72;4990963;28;103101;-76
2021/01/26 11:01:53;;;;;;;3.27;2.13;;;;;;;2.89;77.13;98865.19;4995396;28;103065;-75
2021/01/26 11:04:22;;;;;;;4.13;2.17;;;;;;;2.80;76.50;98875.16;4981115;28;103824;-76
2021/01/26 11:06:50;;;;;;;5.93;1.90;;;;;;;2.77;76.29;98878.75;5002871;28;103329;-80
2021/01/26 11:09:17;;;;;;;5.20;1.83;;;;;;;2.74;76.16;98880.59;5000455;28;103379;-81
2021/01/26 11:11:45;;;;;;;3.27;1.90;;;;;;;2.75;76.91;98875.31;5004117;28;103344;-81
2021/01/26 11:14:13;;;;;;;2.10;1.60;;;;;;;2.77;75.78;98878.75;5022628;28;103816;-80
2021/01/26 11:16:40;;;;;;;3.40;1.87;;;;;;;2.65;76.53;98866.16;5004804;28;105071;-80
2021/01/26 11:19:11;;;;;;;5.07;1.80;;;;;;;2.62;76.04;98876.69;4994479;28;104011;-83
2021/01/26 11:21:39;;;;;;;3.27;1.73;;;;;;;2.71;76.71;98878.09;5009720;28;103080;-81
2021/01/26 11:24:10;;;;;;;2.77;1.80;;;;;;;2.62;74.94;98862.81;5009579;28;103972;-81
2021/01/26 11:26:37;;;;;;;8.40;1.90;;;;;;;2.91;75.32;98862.53;5002525;28;104031;-81
2021/01/26 11:29:05;;;;;;;2.70;1.77;;;;;;;2.92;73.91;98869.44;5003286;28;103037;-81
2021/01/26 11:31:32;;;;;;;4.73;2.03;;;;;;;3.03;74.01;98874.28;4999686;28;102665;-78
2021/01/26 11:34:01;;;;;;;3.23;2.40;;;;;;;3.23;74.21;98879.56;5004228;28;103181;-81
2021/01/26 11:36:29;;;;;;;3.63;1.93;;;;;;;3.27;73.40;98881.97;4990409;28;103319;-81
2021/01/26 11:38:58;;;;;;;3.33;1.90;;;;;;;3.27;73.14;98883.72;5018873;28;103259;-81
2021/01/26 11:41:25;;;;;;;4.50;1.80;;;;;;;3.35;74.36;98889.50;4990045;28;103034;-80
2021/01/26 11:43:53;;;;;;;4.40;2.50;;;;;;;3.27;71.97;98889.81;4987289;28;104926;-80
2021/01/26 11:46:20;;;;;;;3.47;2.37;;;;;;;3.31;72.26;98903.59;4970644;28;103353;-80
2021/01/26 11:48:47;;;;;;;3.37;2.17;;;;;;;3.25;72.63;98907.31;4998889;28;103113;-80
2021/01/26 11:51:14;;;;;;;2.97;2.00;;;;;;;3.15;71.66;98897.25;5007599;28;102826;-80
2021/01/26 11:53:42;;;;;;;3.47;2.33;;;;;;;3.20;72.76;98900.56;5021709;28;105644;-82
2021/01/26 11:56:10;;;;;;;5.53;2.37;;;;;;;3.13;72.37;98891.25;5003124;28;103885;-84
2021/01/26 11:58:38;;;;;;;8.03;2.73;;;;;;;3.26;72.41;98884.63;5017337;28;102921;-82
2021/01/26 12:01:07;;;;;;;5.33;2.70;;;;;;;3.41;72.84;98889.25;4984900;28;103013;-81
2021/01/26 12:03:35;;;;;;;3.93;2.63;;;;;;;3.47;72.43;98883.78;5006638;28;103875;-82
2021/01/26 12:06:04;;;;;;;3.83;2.53;;;;;;;3.92;70.61;98881.00;5007316;28;103751;-81
2021/01/26 12:08:31;;;;;;;4.40;2.90;;;;;;;3.94;70.60;98880.03;5008087;28;103171;-80